Time;durP1;ratioP1;P1;durP2;ratioP2;P2;SDS_P1;SDS_P2;PMS_P1;PMS_P2;Temp;Humidity;BMP_temperature;BMP_pressure;BME280_temperature;BME280_humidity;BME280_pressure;Samples;Min_cycle;Max_cycle;Signal;HPM_P1;HPM_P2
2022/09/28 00:00:41;;;;;;;3.13;1.63;;;;;;;;;;4993974;28;20034;-70
2022/09/28 00:03:08;;;;;;;3.47;1.92;;;;;;;;;;4993842;28;20022;-70
2022/09/28 00:05:34;;;;;;;2.97;1.63;;;;;;;;;;4993540;28;20053;-69
2022/09/28 00:07:59;;;;;;;3.45;1.58;;;;;;;;;;4993944;28;20058;-67
2022/09/28 00:10:25;;;;;;;2.22;1.60;;;;;;;;;;4994013;28;20026;-68
2022/09/28 00:12:52;;;;;;;5.43;1.63;;;;;;;;;;4993798;28;20399;-69
2022/09/28 00:15:18;;;;;;;3.80;1.70;;;;;;;;;;4993780;28;20468;-67
2022/09/28 00:17:43;;;;;;;5.53;1.67;;;;;;;;;;4993622;28;20080;-69
2022/09/28 00:20:10;;;;;;;2.20;1.60;;;;;;;;;;4993398;28;20438;-70
2022/09/28 00:22:36;;;;;;;4.90;1.98;;;;;;;;;;4993584;28;20120;-70
2022/09/28 00:25:03;;;;;;;5.03;1.70;;;;;;;;;;4993621;28;20460;-68
2022/09/28 00:27:28;;;;;;;10.32;2.10;;;;;;;;;;4993364;28;20076;-70
2022/09/28 00:29:54;;;;;;;3.05;1.92;;;;;;;;;;4993624;28;20109;-68
2022/09/28 00:32:23;;;;;;;4.88;2.13;;;;;;;;;;4993380;28;20027;-66
2022/09/28 00:34:50;;;;;;;3.58;2.35;;;;;;;;;;4993334;28;20041;-70
2022/09/28 00:37:17;;;;;;;6.15;2.20;;;;;;;;;;4993285;28;20025;-67
2022/09/28 00:39:43;;;;;;;5.25;1.90;;;;;;;;;;4993061;28;20042;-70
2022/09/28 00:42:17;;;;;;;6.65;2.17;;;;;;;;;;4992969;28;20022;-68
2022/09/28 00:44:46;;;;;;;4.18;2.30;;;;;;;;;;4999946;28;20384;-67
2022/09/28 00:47:41;;;;;;;3.95;2.30;;;;;;;;;;5032792;28;20033;-69
2022/09/28 00:50:07;;;;;;;3.67;2.08;;;;;;;;;;5032498;28;20113;-69
2022/09/28 00:52:36;;;;;;;3.42;2.00;;;;;;;;;;5032693;28;20065;-67
2022/09/28 00:55:05;;;;;;;3.67;2.30;;;;;;;;;;5032801;28;20044;-68
2022/09/28 00:57:32;;;;;;;4.93;2.88;;;;;;;;;;5032584;28;20036;-68
2022/09/28 00:59:59;;;;;;;6.50;2.55;;;;;;;;;;5032354;28;20021;-68
2022/09/28 01:02:25;;;;;;;5.07;2.80;;;;;;;;;;5032636;28;20112;-67
2022/09/28 01:04:52;;;;;;;7.28;2.78;;;;;;;;;;5032304;28;20100;-70
2022/09/28 01:07:17;;;;;;;3.75;2.60;;;;;;;;;;5032528;28;20473;-70
2022/09/28 01:09:44;;;;;;;5.22;2.83;;;;;;;;;;5032545;28;20065;-70
2022/09/28 01:12:10;;;;;;;4.72;2.75;;;;;;;;;;5032401;28;20104;-68
2022/09/28 01:14:36;;;;;;;3.17;2.45;;;;;;;;;;5032444;28;20084;-68
2022/09/28 01:17:16;;;;;;;6.03;2.78;;;;;;;;;;5031112;28;20040;-70
2022/09/28 01:20:05;;;;;;;4.32;2.75;;;;;;;;;;5032190;28;20395;-70
2022/09/28 01:22:37;;;;;;;4.27;2.83;;;;;;;;;;4996445;28;20034;-70
2022/09/28 01:25:44;;;;;;;3.67;2.75;;;;;;;;;;4992956;28;20030;-68
2022/09/28 01:28:19;;;;;;;4.22;2.63;;;;;;;;;;4992671;28;20192;-69
2022/09/28 01:30:55;;;;;;;5.28;2.90;;;;;;;;;;4992999;28;20022;-69
2022/09/28 01:33:27;;;;;;;6.13;3.00;;;;;;;;;;4992826;28;20120;-67
2022/09/28 01:36:01;;;;;;;4.68;3.20;;;;;;;;;;4992746;28;20033;-69
2022/09/28 01:38:36;;;;;;;5.45;2.78;;;;;;;;;;4992982;28;20495;-69
2022/09/28 01:41:04;;;;;;;4.45;3.03;;;;;;;;;;4992917;28;20053;-67
2022/09/28 01:43:36;;;;;;;7.22;2.63;;;;;;;;;;4992758;28;20066;-70
2022/09/28 01:46:12;;;;;;;4.30;2.85;;;;;;;;;;4992878;28;20033;-70
2022/09/28 01:48:57;;;;;;;4.75;2.70;;;;;;;;;;4992905;28;20030;-69
2022/09/28 01:51:52;;;;;;;5.15;2.55;;;;;;;;;;4992870;28;20030;-69
2022/09/28 01:54:30;;;;;;;4.88;2.58;;;;;;;;;;4996149;28;20026;-69
2022/09/28 01:57:08;;;;;;;5.38;2.65;;;;;;;;;;4996276;28;20069;-68
2022/09/28 01:59:36;;;;;;;5.28;3.30;;;;;;;;;;4996218;28;20549;-67
2022/09/28 02:02:26;;;;;;;5.32;3.90;;;;;;;;;;4995951;28;20061;-68
2022/09/28 02:04:59;;;;;;;5.70;3.90;;;;;;;;;;4996251;28;20034;-68
2022/09/28 02:07:33;;;;;;;6.05;4.07;;;;;;;;;;4996185;28;20440;-69
2022/09/28 02:10:05;;;;;;;5.72;3.83;;;;;;;;;;4996158;28;20073;-69
2022/09/28 02:12:47;;;;;;;5.65;3.80;;;;;;;;;;4996076;28;20448;-68
2022/09/28 02:15:21;;;;;;;5.10;3.50;;;;;;;;;;4995986;28;20022;-68
2022/09/28 02:17:48;;;;;;;6.15;3.67;;;;;;;;;;4995999;28;20031;-67
2022/09/28 02:20:14;;;;;;;4.22;3.15;;;;;;;;;;5013098;28;20065;-70
2022/09/28 02:22:50;;;;;;;5.40;3.35;;;;;;;;;;4995864;28;20495;-68
2022/09/28 02:25:35;;;;;;;4.78;3.50;;;;;;;;;;4995674;28;20081;-68
2022/09/28 02:28:04;;;;;;;4.75;3.15;;;;;;;;;;4995680;28;20078;-67
2022/09/28 02:30:31;;;;;;;4.93;3.38;;;;;;;;;;4995370;28;20096;-68
2022/09/28 02:33:04;;;;;;;4.65;3.63;;;;;;;;;;5016344;28;20087;-69
2022/09/28 02:35:29;;;;;;;5.43;3.78;;;;;;;;;;5034859;28;20064;-69
2022/09/28 02:37:55;;;;;;;5.45;4.38;;;;;;;;;;5034883;28;20482;-69
2022/09/28 02:40:30;;;;;;;5.47;3.90;;;;;;;;;;5034911;28;20018;-70
2022/09/28 02:43:10;;;;;;;10.25;3.92;;;;;;;;;;5034905;28;20478;-70
2022/09/28 02:45:54;;;;;;;6.07;4.05;;;;;;;;;;5034393;28;20037;-70
2022/09/28 02:48:50;;;;;;;6.07;4.47;;;;;;;;;;5033489;28;20400;-71
2022/09/28 02:51:28;;;;;;;11.68;4.70;;;;;;;;;;5034738;28;20034;-70
2022/09/28 02:54:03;;;;;;;5.47;4.00;;;;;;;;;;5034441;28;20017;-70
2022/09/28 02:56:34;;;;;;;7.35;4.63;;;;;;;;;;5034579;28;20029;-70
2022/09/28 02:59:13;;;;;;;11.07;7.45;;;;;;;;;;5034343;28;20025;-70
2022/09/28 03:01:38;;;;;;;5.88;4.25;;;;;;;;;;5034349;28;20048;-69
2022/09/28 03:04:10;;;;;;;7.32;4.20;;;;;;;;;;5034051;28;20114;-69
2022/09/28 03:07:04;;;;;;;6.07;3.95;;;;;;;;;;5034506;28;20033;-67
2022/09/28 03:09:59;;;;;;;5.43;3.60;;;;;;;;;;5034410;28;20026;-70
2022/09/28 03:12:28;;;;;;;5.68;4.07;;;;;;;;;;5012272;28;20045;-67
2022/09/28 03:15:12;;;;;;;5.82;3.72;;;;;;;;;;5012007;28;20596;-67
2022/09/28 03:17:38;;;;;;;6.35;4.20;;;;;;;;;;5012076;28;20049;-67
2022/09/28 03:20:04;;;;;;;5.85;3.90;;;;;;;;;;5011941;28;20050;-70
2022/09/28 03:22:30;;;;;;;5.22;3.80;;;;;;;;;;4994285;28;20042;-69
2022/09/28 03:24:55;;;;;;;7.10;4.65;;;;;;;;;;4992496;28;20441;-70
2022/09/28 03:27:21;;;;;;;8.35;4.40;;;;;;;;;;4992414;28;20491;-69
2022/09/28 03:29:46;;;;;;;7.50;5.00;;;;;;;;;;4992163;28;20034;-70
2022/09/28 03:32:12;;;;;;;7.28;5.50;;;;;;;;;;4992465;28;20491;-68
2022/09/28 03:34:37;;;;;;;8.38;4.88;;;;;;;;;;4992468;28;20038;-69
2022/09/28 03:37:03;;;;;;;10.80;5.53;;;;;;;;;;4992324;28;20038;-69
2022/09/28 03:39:28;;;;;;;8.70;5.35;;;;;;;;;;4992178;28;20038;-69
2022/09/28 03:41:53;;;;;;;9.98;4.88;;;;;;;;;;4991972;28;20597;-70
2022/09/28 03:44:19;;;;;;;6.57;4.23;;;;;;;;;;4975605;28;20383;-69
2022/09/28 03:46:45;;;;;;;6.15;4.25;;;;;;;;;;4992081;28;20145;-67
2022/09/28 03:49:11;;;;;;;6.97;5.03;;;;;;;;;;4992900;28;20096;-68
2022/09/28 03:51:36;;;;;;;7.15;4.78;;;;;;;;;;4993931;28;20026;-70
2022/09/28 03:54:02;;;;;;;8.05;4.88;;;;;;;;;;4994167;28;20030;-68
2022/09/28 03:56:27;;;;;;;9.77;5.25;;;;;;;;;;4994111;28;20038;-69
2022/09/28 03:58:53;;;;;;;7.80;4.88;;;;;;;;;;4993892;28;20032;-69
2022/09/28 04:01:18;;;;;;;6.78;4.25;;;;;;;;;;4993966;28;20037;-68
2022/09/28 04:03:45;;;;;;;5.75;3.67;;;;;;;;;;5021117;28;20072;-69
2022/09/28 04:06:10;;;;;;;4.95;3.72;;;;;;;;;;5033424;28;20045;-69
2022/09/28 04:08:36;;;;;;;6.25;3.85;;;;;;;;;;5033211;28;20415;-69
2022/09/28 04:11:01;;;;;;;7.32;3.58;;;;;;;;;;5033246;28;20037;-69
2022/09/28 04:13:28;;;;;;;7.13;3.92;;;;;;;;;;5033054;28;20040;-70
2022/09/28 04:15:55;;;;;;;8.10;4.03;;;;;;;;;;5032489;28;20026;-70
2022/09/28 04:18:22;;;;;;;5.05;4.10;;;;;;;;;;5032994;28;20041;-68
2022/09/28 04:20:56;;;;;;;6.15;3.90;;;;;;;;;;5010821;28;20491;-70
2022/09/28 04:23:21;;;;;;;7.55;4.15;;;;;;;;;;4993769;28;20029;-69
2022/09/28 04:25:51;;;;;;;7.97;4.13;;;;;;;;;;4993531;28;20034;-70
2022/09/28 04:31:00;;;;;;;6.28;4.30;;;;;;;;;;4993762;28;20081;-69
2022/09/28 04:33:25;;;;;;;8.43;4.68;;;;;;;;;;4993535;28;20086;-68
2022/09/28 04:35:51;;;;;;;8.30;4.32;;;;;;;;;;4993642;28;20030;-69
2022/09/28 04:38:16;;;;;;;9.20;4.20;;;;;;;;;;4993532;28;20018;-69
2022/09/28 04:40:42;;;;;;;10.82;5.50;;;;;;;;;;4993167;28;20113;-69
2022/09/28 04:43:07;;;;;;;7.85;4.40;;;;;;;;;;4993485;28;20022;-69
2022/09/28 04:45:33;;;;;;;5.57;4.15;;;;;;;;;;4993374;28;20491;-67
2022/09/28 04:47:58;;;;;;;7.72;4.35;;;;;;;;;;4993536;28;20110;-70
2022/09/28 04:50:24;;;;;;;9.93;4.47;;;;;;;;;;4993382;28;20018;-69
2022/09/28 04:52:49;;;;;;;12.23;4.65;;;;;;;;;;4993220;28;20031;-68
2022/09/28 04:55:15;;;;;;;6.22;4.68;;;;;;;;;;4993285;28;20028;-68
2022/09/28 04:57:41;;;;;;;7.68;4.63;;;;;;;;;;4993352;28;20526;-69
2022/09/28 05:00:08;;;;;;;6.18;4.60;;;;;;;;;;4993071;28;20030;-69
2022/09/28 05:02:33;;;;;;;7.65;4.50;;;;;;;;;;4993099;28;20023;-70
2022/09/28 05:04:59;;;;;;;9.20;6.32;;;;;;;;;;4993015;28;20117;-68
2022/09/28 05:07:25;;;;;;;10.57;5.13;;;;;;;;;;4993094;28;20049;-68
2022/09/28 05:09:51;;;;;;;7.63;4.60;;;;;;;;;;4993079;28;20030;-68
2022/09/28 05:12:16;;;;;;;10.40;4.63;;;;;;;;;;4992917;28;20026;-70
2022/09/28 05:14:42;;;;;;;9.23;5.05;;;;;;;;;;4993039;28;20030;-69
2022/09/28 05:17:09;;;;;;;16.17;5.30;;;;;;;;;;4993120;28;20030;-70
2022/09/28 05:19:34;;;;;;;6.50;4.78;;;;;;;;;;4992777;28;20043;-68
2022/09/28 05:22:03;;;;;;;6.55;4.95;;;;;;;;;;4992681;28;20034;-68
2022/09/28 05:24:29;;;;;;;10.27;4.97;;;;;;;;;;4992415;28;20031;-68
2022/09/28 05:26:55;;;;;;;8.68;5.93;;;;;;;;;;4994009;28;20492;-68
2022/09/28 05:29:20;;;;;;;11.52;6.88;;;;;;;;;;4996577;28;20065;-68
2022/09/28 05:31:46;;;;;;;8.70;5.60;;;;;;;;;;4996629;28;20018;-70
2022/09/28 05:34:11;;;;;;;10.38;5.63;;;;;;;;;;4996282;28;20089;-68
2022/09/28 05:36:38;;;;;;;8.73;4.93;;;;;;;;;;4996743;28;20041;-68
2022/09/28 05:39:04;;;;;;;7.70;5.10;;;;;;;;;;4996512;28;20390;-67
2022/09/28 05:41:29;;;;;;;7.75;5.47;;;;;;;;;;4996523;28;20030;-70
2022/09/28 05:43:56;;;;;;;11.15;5.10;;;;;;;;;;4996622;28;20343;-68
2022/09/28 05:46:22;;;;;;;6.90;5.00;;;;;;;;;;4996446;28;20030;-69
2022/09/28 05:48:48;;;;;;;8.10;4.93;;;;;;;;;;4996407;28;20031;-67
2022/09/28 05:51:14;;;;;;;6.10;4.93;;;;;;;;;;4996175;28;20057;-68
2022/09/28 05:53:39;;;;;;;5.50;4.72;;;;;;;;;;4996191;28;20411;-67
2022/09/28 05:56:05;;;;;;;7.22;4.95;;;;;;;;;;4996178;28;20184;-69
2022/09/28 05:58:30;;;;;;;7.63;5.28;;;;;;;;;;4996254;28;20030;-68
2022/09/28 06:00:57;;;;;;;10.75;6.25;;;;;;;;;;4996251;28;20026;-70
2022/09/28 06:03:23;;;;;;;7.38;5.53;;;;;;;;;;4996289;28;20396;-69
2022/09/28 06:05:48;;;;;;;9.23;5.28;;;;;;;;;;4995984;28;20061;-70
2022/09/28 06:08:14;;;;;;;7.72;5.60;;;;;;;;;;4995739;28;20026;-69
2022/09/28 06:10:39;;;;;;;6.78;5.20;;;;;;;;;;4995952;28;20527;-69
2022/09/28 06:13:06;;;;;;;10.23;6.95;;;;;;;;;;4996126;28;20097;-68
2022/09/28 06:15:33;;;;;;;7.32;5.70;;;;;;;;;;4996148;28;20028;-68
2022/09/28 06:18:19;;;;;;;7.18;4.88;;;;;;;;;;4996055;28;20081;-70
2022/09/28 06:20:45;;;;;;;8.10;4.95;;;;;;;;;;4995741;28;20114;-68
2022/09/28 06:23:12;;;;;;;10.50;5.50;;;;;;;;;;4995514;28;20042;-67
2022/09/28 06:25:39;;;;;;;14.02;5.88;;;;;;;;;;4995654;28;20041;-67
2022/09/28 06:28:08;;;;;;;6.80;5.07;;;;;;;;;;4995805;28;20027;-67
2022/09/28 06:30:37;;;;;;;6.22;5.00;;;;;;;;;;4995671;28;20027;-67
2022/09/28 06:33:04;;;;;;;8.40;4.88;;;;;;;;;;4995584;28;20026;-67
2022/09/28 06:35:31;;;;;;;7.20;5.15;;;;;;;;;;4995555;28;20030;-68
2022/09/28 06:37:58;;;;;;;9.48;5.18;;;;;;;;;;4994870;28;20061;-67
2022/09/28 06:40:23;;;;;;;6.32;4.95;;;;;;;;;;4994004;28;20026;-68
2022/09/28 06:43:14;;;;;;;9.35;5.97;;;;;;;;;;4995566;28;20030;-68
2022/09/28 06:45:41;;;;;;;6.88;5.15;;;;;;;;;;4995294;28;20038;-69
2022/09/28 06:48:09;;;;;;;6.78;5.15;;;;;;;;;;4995399;28;20484;-69
2022/09/28 06:50:38;;;;;;;7.47;4.43;;;;;;;;;;4995243;28;20471;-67
2022/09/28 06:53:06;;;;;;;10.65;5.40;;;;;;;;;;4995280;28;20037;-68
2022/09/28 06:55:31;;;;;;;6.75;4.47;;;;;;;;;;4994962;28;20027;-68
2022/09/28 06:58:03;;;;;;;5.70;4.28;;;;;;;;;;4995290;28;20551;-69
2022/09/28 07:00:32;;;;;;;9.23;5.15;;;;;;;;;;4993840;28;20430;-68
2022/09/28 07:02:58;;;;;;;5.23;3.70;;;;;;;;;;4995136;28;20240;-68
2022/09/28 07:05:28;;;;;;;7.50;5.30;;;;;;;;;;4994736;28;20034;-68
2022/09/28 07:07:54;;;;;;;7.10;5.22;;;;;;;;;;5005956;28;20030;-69
2022/09/28 07:10:24;;;;;;;7.72;5.10;;;;;;;;;;5008125;28;20032;-68
2022/09/28 07:12:51;;;;;;;6.78;3.83;;;;;;;;;;4995286;28;20125;-69
2022/09/28 07:15:17;;;;;;;10.23;5.85;;;;;;;;;;4995110;28;20061;-68
2022/09/28 07:17:42;;;;;;;7.65;5.13;;;;;;;;;;4994996;28;20033;-70
2022/09/28 07:20:08;;;;;;;7.75;5.78;;;;;;;;;;4994306;28;20050;-69
2022/09/28 07:22:33;;;;;;;7.18;5.40;;;;;;;;;;4994743;28;20092;-68
2022/09/28 07:24:59;;;;;;;9.15;5.85;;;;;;;;;;5008843;28;20029;-70
2022/09/28 07:27:25;;;;;;;14.40;5.90;;;;;;;;;;5013874;28;20017;-69
2022/09/28 07:29:52;;;;;;;10.43;5.78;;;;;;;;;;5013974;28;20018;-68
2022/09/28 07:32:19;;;;;;;7.60;5.78;;;;;;;;;;5013694;28;20026;-67
2022/09/28 07:34:44;;;;;;;8.43;5.30;;;;;;;;;;5013784;28;20391;-67
2022/09/28 07:37:12;;;;;;;8.75;5.40;;;;;;;;;;5013434;28;20018;-68
2022/09/28 07:42:23;;;;;;;8.98;5.03;;;;;;;;;;5013907;28;20049;-67
2022/09/28 07:44:49;;;;;;;7.35;5.57;;;;;;;;;;5013674;28;20085;-67
2022/09/28 07:47:14;;;;;;;9.93;5.65;;;;;;;;;;5013301;28;20026;-70
2022/09/28 07:49:40;;;;;;;8.52;5.38;;;;;;;;;;5012958;28;20448;-68
2022/09/28 07:52:05;;;;;;;7.82;5.57;;;;;;;;;;5012993;28;20026;-69
2022/09/28 07:54:31;;;;;;;8.82;6.00;;;;;;;;;;5013501;28;20152;-69
2022/09/28 07:56:56;;;;;;;13.25;5.55;;;;;;;;;;5013287;28;20033;-68
2022/09/28 07:59:22;;;;;;;11.88;5.32;;;;;;;;;;5013461;28;20415;-69
2022/09/28 08:01:50;;;;;;;9.10;5.13;;;;;;;;;;5013189;28;20068;-67
2022/09/28 08:04:16;;;;;;;7.72;5.10;;;;;;;;;;5012976;28;20479;-67
2022/09/28 08:06:43;;;;;;;8.85;5.28;;;;;;;;;;5013249;28;20037;-67
2022/09/28 08:09:09;;;;;;;8.70;5.95;;;;;;;;;;5011828;28;20100;-68
2022/09/28 08:11:35;;;;;;;10.70;5.70;;;;;;;;;;5013099;28;20112;-69
2022/09/28 08:14:01;;;;;;;9.32;5.50;;;;;;;;;;5013006;28;20478;-68
2022/09/28 08:16:27;;;;;;;14.77;6.45;;;;;;;;;;5013050;28;20041;-67
2022/09/28 08:18:53;;;;;;;11.27;5.40;;;;;;;;;;5012641;28;20053;-67
2022/09/28 08:24:04;;;;;;;7.22;6.05;;;;;;;;;;5013080;28;20072;-66
2022/09/28 08:26:29;;;;;;;8.63;6.22;;;;;;;;;;5013005;28;20037;-69
2022/09/28 08:28:55;;;;;;;9.90;6.95;;;;;;;;;;5011367;28;20037;-69
2022/09/28 08:31:20;;;;;;;9.90;6.28;;;;;;;;;;5012927;28;20018;-68
2022/09/28 08:33:48;;;;;;;8.60;5.82;;;;;;;;;;5012756;28;20018;-67
2022/09/28 08:36:13;;;;;;;8.95;6.60;;;;;;;;;;5012731;28;20034;-67
2022/09/28 08:38:38;;;;;;;11.68;7.13;;;;;;;;;;5012998;28;20034;-69
2022/09/28 08:41:31;;;;;;;9.90;7.00;;;;;;;;;;5012698;28;20022;-67
2022/09/28 08:44:14;;;;;;;10.13;7.00;;;;;;;;;;5012802;28;20029;-68
2022/09/28 08:46:44;;;;;;;9.13;6.30;;;;;;;;;;5012104;28;20033;-68
2022/09/28 08:49:15;;;;;;;11.52;7.15;;;;;;;;;;5012728;28;20104;-67
2022/09/28 08:51:50;;;;;;;13.25;6.85;;;;;;;;;;5012705;28;20471;-68
2022/09/28 08:54:37;;;;;;;11.23;7.05;;;;;;;;;;5012621;28;20026;-67
2022/09/28 08:57:10;;;;;;;9.27;7.15;;;;;;;;;;5012620;28;20105;-67
2022/09/28 08:59:46;;;;;;;10.75;8.05;;;;;;;;;;5011274;28;20443;-67
2022/09/28 09:02:32;;;;;;;9.90;7.80;;;;;;;;;;5014080;28;20022;-70
2022/09/28 09:04:59;;;;;;;9.00;7.60;;;;;;;;;;5016486;28;20468;-68
2022/09/28 09:08:01;;;;;;;12.77;7.93;;;;;;;;;;5016413;28;20025;-68
2022/09/28 09:10:48;;;;;;;11.20;7.72;;;;;;;;;;5016561;28;20030;-71
2022/09/28 09:13:37;;;;;;;7.75;6.07;;;;;;;;;;5016454;28;20057;-70
2022/09/28 09:16:20;;;;;;;8.48;6.28;;;;;;;;;;5016193;28;20026;-70
2022/09/28 09:19:26;;;;;;;7.45;6.13;;;;;;;;;;5016376;28;20045;-71
2022/09/28 09:22:01;;;;;;;7.57;5.13;;;;;;;;;;5003952;28;20050;-70
2022/09/28 09:24:33;;;;;;;10.07;5.68;;;;;;;;;;4996539;28;20038;-70
2022/09/28 09:27:46;;;;;;;7.65;6.05;;;;;;;;;;4996619;28;20089;-67
2022/09/28 09:30:17;;;;;;;6.97;5.18;;;;;;;;;;4996162;28;20511;-71
2022/09/28 09:33:03;;;;;;;5.43;4.30;;;;;;;;;;4996519;28;20498;-67
2022/09/28 09:36:11;;;;;;;6.50;4.70;;;;;;;;;;4996489;28;20344;-67
2022/09/28 09:38:49;;;;;;;8.13;4.70;;;;;;;;;;4994202;28;20022;-68
2022/09/28 09:41:58;;;;;;;7.80;4.30;;;;;;;;;;5006243;28;20080;-69
2022/09/28 09:44:26;;;;;;;6.93;4.07;;;;;;;;;;5011472;28;20057;-67
2022/09/28 09:47:22;;;;;;;7.32;4.38;;;;;;;;;;5013273;28;20407;-67
2022/09/28 09:49:50;;;;;;;12.50;4.25;;;;;;;;;;5013639;28;20038;-67
2022/09/28 09:52:53;;;;;;;5.82;4.18;;;;;;;;;;5013385;28;20037;-67
2022/09/28 09:55:26;;;;;;;6.70;4.30;;;;;;;;;;5007419;28;20042;-70
2022/09/28 09:58:03;;;;;;;5.13;4.03;;;;;;;;;;5013614;28;20105;-67
2022/09/28 10:00:30;;;;;;;5.68;3.90;;;;;;;;;;5013104;28;20458;-67
2022/09/28 10:02:58;;;;;;;11.07;9.32;;;;;;;;;;5013303;28;20068;-68
2022/09/28 10:05:28;;;;;;;6.35;4.25;;;;;;;;;;5013233;28;20042;-70
2022/09/28 10:08:07;;;;;;;6.32;4.00;;;;;;;;;;5013452;28;20080;-70
2022/09/28 10:11:01;;;;;;;6.18;4.30;;;;;;;;;;5011670;28;20025;-68
2022/09/28 10:13:28;;;;;;;8.10;5.55;;;;;;;;;;5013946;28;20042;-67
2022/09/28 10:15:54;;;;;;;6.00;4.22;;;;;;;;;;5015180;28;20026;-71
2022/09/28 10:18:20;;;;;;;7.40;4.35;;;;;;;;;;5014879;28;20096;-71
2022/09/28 10:20:46;;;;;;;6.38;4.15;;;;;;;;;;5011683;28;20023;-69
2022/09/28 10:23:21;;;;;;;7.47;4.47;;;;;;;;;;4995574;28;20814;-67
2022/09/28 10:25:50;;;;;;;5.18;4.10;;;;;;;;;;4995496;28;20037;-68
2022/09/28 10:28:23;;;;;;;5.40;3.30;;;;;;;;;;4995242;28;20439;-67
2022/09/28 10:30:49;;;;;;;5.97;4.38;;;;;;;;;;4995439;28;20482;-67
2022/09/28 10:33:33;;;;;;;4.78;3.60;;;;;;;;;;5008143;28;20045;-67
2022/09/28 10:36:05;;;;;;;5.78;3.53;;;;;;;;;;5015051;28;20049;-67
2022/09/28 10:38:32;;;;;;;7.22;4.25;;;;;;;;;;5014832;28;20433;-71
2022/09/28 10:41:08;;;;;;;5.32;3.40;;;;;;;;;;5014841;28;20383;-71
2022/09/28 10:43:37;;;;;;;6.20;3.28;;;;;;;;;;5014582;28;20096;-68
2022/09/28 10:46:07;;;;;;;6.18;4.32;;;;;;;;;;5014681;28;20026;-70
2022/09/28 10:48:44;;;;;;;5.13;3.80;;;;;;;;;;5014427;28;20536;-67
2022/09/28 10:51:10;;;;;;;5.50;4.28;;;;;;;;;;5014528;28;20034;-68
2022/09/28 10:53:36;;;;;;;6.20;4.38;;;;;;;;;;5014432;28;20029;-70
2022/09/28 10:56:17;;;;;;;6.15;5.03;;;;;;;;;;5014454;28;20083;-71
2022/09/28 10:58:43;;;;;;;6.03;5.25;;;;;;;;;;5014249;28;20029;-67
2022/09/28 11:01:32;;;;;;;6.88;5.95;;;;;;;;;;5014268;28;20022;-67
2022/09/28 11:04:06;;;;;;;6.07;5.47;;;;;;;;;;5011531;28;20042;-68
2022/09/28 11:06:37;;;;;;;6.22;5.18;;;;;;;;;;5014270;28;20042;-67
2022/09/28 11:09:06;;;;;;;7.10;5.03;;;;;;;;;;5012784;28;20026;-68
2022/09/28 11:11:39;;;;;;;4.78;4.28;;;;;;;;;;5014167;28;20482;-69
2022/09/28 11:14:27;;;;;;;5.47;4.40;;;;;;;;;;5014125;28;20030;-69
2022/09/28 11:17:15;;;;;;;7.63;4.80;;;;;;;;;;5012901;28;20029;-71
2022/09/28 11:19:41;;;;;;;6.03;4.55;;;;;;;;;;5013886;28;20045;-70
2022/09/28 11:22:43;;;;;;;6.95;4.47;;;;;;;;;;4998084;28;20038;-68
2022/09/28 11:25:14;;;;;;;6.22;4.78;;;;;;;;;;4991803;28;20037;-68
2022/09/28 11:27:41;;;;;;;9.75;5.28;;;;;;;;;;4991641;28;20074;-67
2022/09/28 11:30:29;;;;;;;5.40;4.30;;;;;;;;;;4992101;28;20105;-68
2022/09/28 11:33:19;;;;;;;4.65;3.72;;;;;;;;;;4991931;28;20031;-68
2022/09/28 11:35:59;;;;;;;5.82;3.92;;;;;;;;;;4992072;28;20030;-69
2022/09/28 11:38:30;;;;;;;7.20;4.55;;;;;;;;;;4991883;28;20055;-68
2022/09/28 11:41:23;;;;;;;6.20;4.43;;;;;;;;;;4991551;28;20508;-70
2022/09/28 11:44:12;;;;;;;6.07;4.20;;;;;;;;;;4992014;28;20030;-69
2022/09/28 11:46:49;;;;;;;7.53;4.72;;;;;;;;;;4991566;28;20205;-69
2022/09/28 11:49:26;;;;;;;5.93;3.83;;;;;;;;;;4991828;28;20044;-68
2022/09/28 11:51:55;;;;;;;5.00;4.00;;;;;;;;;;4991888;28;20060;-70
2022/09/28 11:54:36;;;;;;;7.90;4.30;;;;;;;;;;4991694;28;20030;-71
2022/09/28 11:57:04;;;;;;;7.28;4.63;;;;;;;;;;4991533;28;20383;-68
2022/09/28 11:59:38;;;;;;;6.35;4.68;;;;;;;;;;4992925;28;20042;-69
2022/09/28 12:02:19;;;;;;;5.05;4.45;;;;;;;;;;4993760;28;20485;-68
2022/09/28 12:05:08;;;;;;;9.38;4.90;;;;;;;;;;4993328;28;20070;-68
2022/09/28 12:07:39;;;;;;;5.70;4.63;;;;;;;;;;4993571;28;20031;-68
2022/09/28 12:10:13;;;;;;;6.65;4.15;;;;;;;;;;4993178;28;20088;-68
2022/09/28 12:12:59;;;;;;;5.70;4.00;;;;;;;;;;4993606;28;20065;-71
2022/09/28 12:15:50;;;;;;;7.55;4.40;;;;;;;;;;4993393;28;20030;-68
2022/09/28 12:18:26;;;;;;;7.25;4.22;;;;;;;;;;4993279;28;20113;-67
2022/09/28 12:21:05;;;;;;;5.00;4.28;;;;;;;;;;4993256;28;20066;-69
2022/09/28 12:23:34;;;;;;;6.80;4.50;;;;;;;;;;4993473;28;20054;-68
2022/09/28 12:26:37;;;;;;;5.43;4.32;;;;;;;;;;4992924;28;20045;-68
2022/09/28 12:29:12;;;;;;;5.03;4.00;;;;;;;;;;4993225;28;20033;-67
2022/09/28 12:32:04;;;;;;;10.82;4.65;;;;;;;;;;4993169;28;20030;-71
2022/09/28 12:34:30;;;;;;;8.45;5.80;;;;;;;;;;4993038;28;20526;-70
2022/09/28 12:37:26;;;;;;;6.50;5.20;;;;;;;;;;4992337;28;20034;-71
2022/09/28 12:40:06;;;;;;;6.70;4.82;;;;;;;;;;4992682;28;20046;-71
2022/09/28 12:43:04;;;;;;;7.20;4.80;;;;;;;;;;4992604;28;20054;-71
2022/09/28 12:45:50;;;;;;;8.32;4.97;;;;;;;;;;4993078;28;20448;-71
2022/09/28 12:48:29;;;;;;;8.13;5.97;;;;;;;;;;4992952;28;20499;-72
2022/09/28 12:51:03;;;;;;;11.43;7.30;;;;;;;;;;4992860;28;20034;-72
2022/09/28 12:53:43;;;;;;;8.38;5.60;;;;;;;;;;4992764;28;20026;-72
2022/09/28 12:56:36;;;;;;;8.35;5.72;;;;;;;;;;4992735;28;20037;-72
2022/09/28 12:59:24;;;;;;;8.20;6.00;;;;;;;;;;4992900;28;20100;-70
2022/09/28 13:02:22;;;;;;;7.38;5.53;;;;;;;;;;4992876;28;20030;-70
2022/09/28 13:05:19;;;;;;;11.23;5.35;;;;;;;;;;4992712;28;20027;-71
2022/09/28 13:08:02;;;;;;;11.95;6.00;;;;;;;;;;4992702;28;20038;-70
2022/09/28 13:10:58;;;;;;;6.75;4.95;;;;;;;;;;4992852;28;20069;-68
2022/09/28 13:14:05;;;;;;;9.18;5.85;;;;;;;;;;4988193;28;20057;-69
2022/09/28 13:16:36;;;;;;;8.30;5.55;;;;;;;;;;4992800;28;20035;-70
2022/09/28 13:19:13;;;;;;;9.02;5.38;;;;;;;;;;4992332;28;20129;-70
2022/09/28 13:22:08;;;;;;;6.70;4.97;;;;;;;;;;4992590;28;20110;-70
2022/09/28 13:24:38;;;;;;;6.03;4.80;;;;;;;;;;4992690;28;20031;-71
2022/09/28 13:27:12;;;;;;;6.53;5.25;;;;;;;;;;4992601;28;20041;-70
2022/09/28 13:29:38;;;;;;;10.93;6.60;;;;;;;;;;4992710;28;20032;-69
2022/09/28 13:32:07;;;;;;;8.27;5.57;;;;;;;;;;4992638;28;20484;-70
2022/09/28 13:34:35;;;;;;;9.88;5.95;;;;;;;;;;4992318;28;20085;-69
2022/09/28 13:37:13;;;;;;;9.95;7.15;;;;;;;;;;5011741;28;20057;-67
2022/09/28 13:39:44;;;;;;;8.10;5.47;;;;;;;;;;5018553;28;20041;-70
2022/09/28 13:42:44;;;;;;;10.00;5.60;;;;;;;;;;5019011;28;20112;-69
2022/09/28 13:45:18;;;;;;;8.75;5.72;;;;;;;;;;5011832;28;20159;-70
2022/09/28 13:48:01;;;;;;;8.35;4.97;;;;;;;;;;5012792;28;20026;-70
2022/09/28 13:50:44;;;;;;;8.75;5.28;;;;;;;;;;5015518;28;20419;-70
2022/09/28 13:53:41;;;;;;;7.00;5.35;;;;;;;;;;5015334;28;20034;-70
2022/09/28 13:56:27;;;;;;;6.05;4.47;;;;;;;;;;5015670;28;20053;-69
2022/09/28 13:59:07;;;;;;;7.65;5.70;;;;;;;;;;5015505;28;20026;-69
2022/09/28 14:01:39;;;;;;;6.93;4.82;;;;;;;;;;5015403;28;20510;-69
2022/09/28 14:04:14;;;;;;;9.52;5.25;;;;;;;;;;5011963;28;20033;-70
2022/09/28 14:07:19;;;;;;;5.97;4.90;;;;;;;;;;5015120;28;20038;-70
2022/09/28 14:10:06;;;;;;;5.70;4.40;;;;;;;;;;5013343;28;20058;-67
2022/09/28 14:12:32;;;;;;;5.80;4.55;;;;;;;;;;5013180;28;20025;-67
2022/09/28 14:14:59;;;;;;;5.35;4.32;;;;;;;;;;5012994;28;20044;-67
2022/09/28 14:17:24;;;;;;;5.38;4.30;;;;;;;;;;5013000;28;20108;-69
2022/09/28 14:20:11;;;;;;;7.03;4.97;;;;;;;;;;5012825;28;20138;-67
2022/09/28 14:22:59;;;;;;;8.13;4.75;;;;;;;;;;4994321;28;20035;-67
2022/09/28 14:25:34;;;;;;;6.60;4.20;;;;;;;;;;4993228;28;20046;-66
2022/09/28 14:28:22;;;;;;;4.95;3.97;;;;;;;;;;4976991;28;20395;-67
2022/09/28 14:30:54;;;;;;;7.82;4.40;;;;;;;;;;4993120;28;20073;-68
2022/09/28 14:33:19;;;;;;;5.15;4.03;;;;;;;;;;4993145;28;20497;-67
2022/09/28 14:35:49;;;;;;;8.80;4.32;;;;;;;;;;4993054;28;20058;-67
2022/09/28 14:41:24;;;;;;;3.50;2.70;;;;;;;;;;4992968;28;20041;-67
2022/09/28 14:43:49;;;;;;;3.40;2.67;;;;;;;;;;4993009;28;20039;-67
2022/09/28 14:46:18;;;;;;;3.28;2.60;;;;;;;;;;4993714;28;20050;-67
2022/09/28 14:48:53;;;;;;;6.28;2.78;;;;;;;;;;4995175;28;20097;-67
2022/09/28 14:51:28;;;;;;;7.57;2.90;;;;;;;;;;4994933;28;20587;-67
2022/09/28 14:54:03;;;;;;;5.88;2.97;;;;;;;;;;4995163;28;20038;-67
2022/09/28 14:56:39;;;;;;;7.13;2.75;;;;;;;;;;4995036;28;20113;-68
2022/09/28 14:59:10;;;;;;;3.15;1.98;;;;;;;;;;4994523;28;20018;-67
2022/09/28 15:01:35;;;;;;;;;;;;;;;;;;4995218;28;20476;-67
2022/09/28 15:04:03;;;;;;;2.28;1.60;;;;;;;;;;4994766;28;19980;-68
2022/09/28 15:06:49;;;;;;;3.33;1.52;;;;;;;;;;4994744;28;20038;-67
2022/09/28 15:09:28;;;;;;;4.80;1.90;;;;;;;;;;4994695;28;20034;-66
2022/09/28 15:12:20;;;;;;;2.75;1.50;;;;;;;;;;4994774;28;20089;-67
2022/09/28 15:14:58;;;;;;;4.47;1.73;;;;;;;;;;4994381;28;20038;-69
2022/09/28 15:17:47;;;;;;;3.85;1.65;;;;;;;;;;4993331;28;20049;-69
2022/09/28 15:20:36;;;;;;;3.23;1.70;;;;;;;;;;4993998;28;20047;-69
2022/09/28 15:23:02;;;;;;;2.20;1.80;;;;;;;;;;4994381;28;20038;-69
2022/09/28 15:25:30;;;;;;;4.55;2.22;;;;;;;;;;4994058;28;20030;-69
2022/09/28 15:28:03;;;;;;;8.88;3.42;;;;;;;;;;4994454;28;20065;-69